Time;durP1;ratioP1;P1;durP2;ratioP2;P2;SDS_P1;SDS_P2;PMS_P1;PMS_P2;Temp;Humidity;BMP_temperature;BMP_pressure;BME280_temperature;BME280_humidity;BME280_pressure;Samples;Min_cycle;Max_cycle;Signal;HPM_P1;HPM_P2
2020/12/08 00:01:49;;;;;;;36.92;22.83;;;3.10;90.70;;;;;;5060885;28;20035;-69
2020/12/08 00:04:15;;;;;;;40.72;23.60;;;3.00;90.70;;;;;;5054657;28;20055;-69
2020/12/08 00:06:40;;;;;;;41.80;24.85;;;3.10;90.90;;;;;;5054651;28;20064;-69
2020/12/08 00:09:06;;;;;;;42.78;25.05;;;3.10;90.70;;;;;;5057947;28;20074;-69
2020/12/08 00:11:32;;;;;;;41.53;23.55;;;3.10;90.70;;;;;;5054071;28;20420;-70
2020/12/08 00:13:57;;;;;;;43.75;24.83;;;3.10;90.50;;;;;;5047485;28;20052;-69
2020/12/08 00:16:23;;;;;;;48.22;25.92;;;3.00;90.40;;;;;;5044114;28;20122;-72
2020/12/08 00:18:49;;;;;;;48.80;27.33;;;2.90;90.60;;;;;;5052971;28;20119;-69
2020/12/08 00:21:14;;;;;;;46.15;25.85;;;2.90;90.80;;;;;;5052305;28;20466;-70
2020/12/08 00:23:40;;;;;;;44.78;25.77;;;2.80;91.20;;;;;;5054563;28;20370;-69
2020/12/08 00:26:05;;;;;;;42.88;24.88;;;2.80;91.40;;;;;;5048992;28;20501;-69
2020/12/08 00:28:33;;;;;;;45.08;24.60;;;2.90;91.50;;;;;;5057030;28;20119;-69
2020/12/08 00:30:58;;;;;;;48.15;25.10;;;2.80;91.40;;;;;;5057346;28;20284;-69
2020/12/08 00:33:24;;;;;;;47.33;26.95;;;2.90;91.50;;;;;;5055951;28;20043;-70
2020/12/08 00:35:50;;;;;;;46.67;26.33;;;2.90;91.40;;;;;;5062241;28;20039;-69
2020/12/08 00:38:15;;;;;;;48.17;26.55;;;2.80;91.50;;;;;;5056423;28;20085;-69
2020/12/08 00:40:41;;;;;;;44.05;26.02;;;2.80;91.50;;;;;;5055931;28;20059;-69
2020/12/08 00:43:07;;;;;;;43.13;25.48;;;2.80;91.50;;;;;;5046530;28;20455;-69
2020/12/08 00:45:33;;;;;;;44.83;25.67;;;2.80;91.60;;;;;;5054802;28;20041;-69
2020/12/08 00:47:59;;;;;;;45.85;26.27;;;2.80;91.70;;;;;;5056406;28;20052;-69
2020/12/08 00:50:24;;;;;;;45.30;26.27;;;2.70;91.70;;;;;;5056170;28;20048;-69
2020/12/08 00:52:50;;;;;;;44.30;25.08;;;2.70;91.80;;;;;;5056240;28;20035;-70
2020/12/08 00:55:16;;;;;;;42.03;25.10;;;2.70;91.90;;;;;;5053308;28;20037;-69
2020/12/08 00:57:41;;;;;;;41.58;25.88;;;2.70;91.90;;;;;;5055532;28;20030;-69
2020/12/08 01:00:07;;;;;;;43.75;26.30;;;2.70;92.00;;;;;;5063164;28;20402;-69
2020/12/08 01:02:33;;;;;;;42.08;26.50;;;2.80;92.10;;;;;;5056346;28;20064;-72
2020/12/08 01:04:58;;;;;;;40.92;24.45;;;2.80;92.10;;;;;;5059554;28;20467;-69
2020/12/08 01:07:24;;;;;;;42.00;25.30;;;2.80;92.00;;;;;;5055194;28;20037;-69
2020/12/08 01:09:50;;;;;;;43.80;25.92;;;2.80;92.00;;;;;;5052584;28;20472;-69
2020/12/08 01:12:16;;;;;;;35.38;24.83;;;2.80;92.00;;;;;;5057300;28;20033;-69
2020/12/08 01:14:41;;;;;;;39.67;25.58;;;2.80;91.90;;;;;;5056832;28;20029;-70
2020/12/08 01:17:07;;;;;;;37.08;24.15;;;2.90;91.80;;;;;;5063611;28;20075;-69
2020/12/08 01:19:33;;;;;;;36.88;24.25;;;2.90;91.80;;;;;;5053957;28;20037;-70
2020/12/08 01:21:59;;;;;;;39.42;23.05;;;2.90;91.50;;;;;;5060172;28;20041;-69
2020/12/08 01:24:24;;;;;;;38.50;25.10;;;2.90;91.60;;;;;;5052207;28;20093;-70
2020/12/08 01:26:50;;;;;;;36.83;23.75;;;2.90;91.70;;;;;;5054675;28;20798;-69
2020/12/08 01:29:16;;;;;;;38.72;24.25;;;2.90;91.70;;;;;;5054748;28;20577;-70
2020/12/08 01:31:41;;;;;;;38.78;24.95;;;2.90;91.50;;;;;;5058969;28;20028;-69
2020/12/08 01:34:07;;;;;;;41.50;23.48;;;2.80;91.60;;;;;;5049912;28;20113;-70
2020/12/08 01:36:34;;;;;;;38.70;24.88;;;2.90;91.60;;;;;;5052556;28;20082;-69
2020/12/08 01:38:59;;;;;;;45.50;25.85;;;2.80;91.60;;;;;;5053812;28;20083;-69
2020/12/08 01:41:25;;;;;;;38.78;25.25;;;2.80;91.70;;;;;;5029669;28;20770;-70
2020/12/08 01:43:52;;;;;;;41.90;25.65;;;2.80;91.80;;;;;;5054476;28;20044;-69
2020/12/08 01:46:20;;;;;;;40.90;25.52;;;2.80;91.80;;;;;;5057287;28;20139;-69
2020/12/08 01:48:47;;;;;;;39.42;26.15;;;2.80;91.90;;;;;;5062380;28;20041;-68
2020/12/08 01:51:15;;;;;;;44.35;27.40;;;2.80;91.90;;;;;;5055441;28;20487;-69
2020/12/08 01:53:41;;;;;;;43.50;27.23;;;2.70;91.90;;;;;;5060906;28;20037;-69
2020/12/08 01:56:08;;;;;;;43.55;28.05;;;2.70;91.90;;;;;;5062701;28;20060;-69
2020/12/08 01:58:34;;;;;;;44.28;27.45;;;2.70;91.90;;;;;;5067479;28;20115;-69
2020/12/08 02:01:00;;;;;;;43.30;27.55;;;2.60;91.90;;;;;;5063217;28;20607;-69
2020/12/08 02:03:26;;;;;;;42.28;27.80;;;2.60;92.10;;;;;;5061201;28;20044;-69
2020/12/08 02:05:53;;;;;;;41.10;27.65;;;2.60;92.00;;;;;;5066492;28;20029;-69
2020/12/08 02:08:32;;;;;;;43.35;27.17;;;2.60;92.10;;;;;;5067827;28;20136;-70
2020/12/08 02:10:58;;;;;;;40.63;27.90;;;2.50;92.10;;;;;;5065191;28;20043;-68
2020/12/08 02:13:25;;;;;;;46.33;28.73;;;2.40;92.10;;;;;;5061683;28;20404;-69
2020/12/08 02:15:51;;;;;;;43.38;28.77;;;2.30;92.30;;;;;;5065014;28;20036;-69
2020/12/08 02:18:17;;;;;;;44.72;28.05;;;2.40;92.40;;;;;;5071636;28;20194;-69
2020/12/08 02:20:43;;;;;;;44.92;30.08;;;2.40;92.50;;;;;;5055832;28;22091;-72
2020/12/08 02:23:09;;;;;;;45.33;28.67;;;2.40;92.60;;;;;;5070291;28;20029;-69
2020/12/08 02:25:35;;;;;;;49.45;29.48;;;2.40;92.60;;;;;;5062688;28;20060;-69
2020/12/08 02:28:01;;;;;;;44.70;28.42;;;2.40;92.60;;;;;;5068683;28;20040;-68
2020/12/08 02:30:26;;;;;;;45.72;28.95;;;2.30;92.60;;;;;;5071446;28;20044;-69
2020/12/08 02:32:52;;;;;;;45.22;28.92;;;2.30;92.60;;;;;;5064891;28;20598;-69
2020/12/08 02:35:18;;;;;;;43.53;29.08;;;2.30;92.60;;;;;;5059169;28;20047;-69
2020/12/08 02:37:43;;;;;;;43.85;28.92;;;2.30;92.60;;;;;;5074553;28;20048;-69
2020/12/08 02:40:09;;;;;;;45.38;28.75;;;2.30;92.70;;;;;;5063067;28;20154;-69
2020/12/08 02:42:35;;;;;;;47.08;29.20;;;2.20;92.70;;;;;;5066859;28;20029;-68
2020/12/08 02:45:00;;;;;;;49.70;31.42;;;2.20;92.70;;;;;;5065053;28;20025;-69
2020/12/08 02:47:26;;;;;;;51.00;31.13;;;2.20;92.80;;;;;;5055419;28;20041;-70
2020/12/08 02:49:54;;;;;;;46.85;30.65;;;2.20;92.90;;;;;;5062255;28;20044;-69
2020/12/08 02:52:23;;;;;;;48.65;31.10;;;2.20;93.00;;;;;;5070425;28;20033;-69
2020/12/08 02:54:49;;;;;;;47.25;30.85;;;2.30;93.00;;;;;;5069932;28;20467;-70
2020/12/08 02:57:15;;;;;;;46.60;30.08;;;2.20;92.90;;;;;;5064308;28;20479;-69
2020/12/08 02:59:41;;;;;;;45.53;29.50;;;2.20;93.00;;;;;;5067338;28;20033;-69
2020/12/08 03:02:07;;;;;;;51.28;30.92;;;2.30;93.00;;;;;;5065218;28;20028;-69
2020/12/08 03:04:33;;;;;;;47.13;30.05;;;2.20;93.00;;;;;;5068446;28;20371;-69
2020/12/08 03:06:58;;;;;;;49.58;31.02;;;2.30;93.00;;;;;;5063152;28;20079;-69
2020/12/08 03:09:24;;;;;;;50.10;30.60;;;2.30;93.10;;;;;;5053090;28;20052;-69
2020/12/08 03:11:50;;;;;;;48.95;30.90;;;2.40;93.10;;;;;;5039008;28;20037;-71
2020/12/08 03:14:15;;;;;;;47.50;29.92;;;2.40;93.10;;;;;;5039666;28;20025;-68
2020/12/08 03:16:41;;;;;;;48.30;30.40;;;2.40;93.10;;;;;;5051384;28;20033;-69
2020/12/08 03:19:07;;;;;;;47.00;29.02;;;2.40;93.10;;;;;;5059633;28;20032;-69
2020/12/08 03:21:33;;;;;;;45.30;29.17;;;2.40;93.10;;;;;;5066532;28;20032;-69
2020/12/08 03:23:59;;;;;;;42.63;28.35;;;2.50;93.20;;;;;;5068883;28;20032;-68
2020/12/08 03:26:25;;;;;;;41.50;28.15;;;2.50;93.20;;;;;;5061881;28;20041;-69
2020/12/08 03:28:51;;;;;;;47.22;30.20;;;2.60;93.30;;;;;;5065420;28;20028;-69
2020/12/08 03:31:17;;;;;;;42.75;29.10;;;2.60;93.30;;;;;;5065772;28;20048;-68
2020/12/08 03:33:43;;;;;;;46.08;30.33;;;2.60;93.30;;;;;;5066684;28;20431;-69
2020/12/08 03:36:18;;;;;;;45.40;29.30;;;2.60;93.10;;;;;;5068625;28;20501;-70
2020/12/08 03:38:45;;;;;;;43.92;29.73;;;2.60;92.90;;;;;;5068280;28;20098;-69
2020/12/08 03:41:17;;;;;;;41.13;28.77;;;2.60;92.80;;;;;;5064426;28;20071;-68
2020/12/08 03:43:43;;;;;;;46.45;28.90;;;2.60;92.80;;;;;;5060903;28;20056;-68
2020/12/08 03:46:09;;;;;;;45.00;30.85;;;2.50;92.80;;;;;;5065018;28;20056;-69
2020/12/08 03:48:35;;;;;;;47.47;31.35;;;2.50;92.80;;;;;;5069846;28;20167;-68
2020/12/08 03:51:00;;;;;;;47.78;29.60;;;2.50;92.90;;;;;;5045490;28;20034;-71
2020/12/08 03:53:26;;;;;;;46.13;30.95;;;2.50;92.90;;;;;;5047463;28;20048;-67
2020/12/08 03:55:51;;;;;;;49.47;32.08;;;2.50;93.00;;;;;;5047175;28;20083;-68
2020/12/08 03:58:17;;;;;;;46.60;31.05;;;2.50;93.00;;;;;;5043633;28;20106;-70
2020/12/08 04:00:43;;;;;;;46.20;30.33;;;2.50;93.10;;;;;;5037440;28;20049;-69
2020/12/08 04:03:09;;;;;;;44.50;30.80;;;2.60;93.10;;;;;;5043591;28;20025;-68
2020/12/08 04:05:35;;;;;;;44.42;30.98;;;2.60;93.00;;;;;;5039891;28;20399;-70
2020/12/08 04:08:00;;;;;;;45.25;29.98;;;2.60;93.00;;;;;;5041818;28;20037;-70
2020/12/08 04:10:26;;;;;;;39.13;27.98;;;2.60;92.80;;;;;;5044651;28;20092;-69
2020/12/08 04:12:51;;;;;;;42.45;28.55;;;2.60;92.80;;;;;;5048459;28;20417;-69
2020/12/08 04:15:17;;;;;;;41.58;29.23;;;2.60;92.90;;;;;;5044587;28;20052;-69
2020/12/08 04:17:43;;;;;;;40.22;28.88;;;2.60;92.90;;;;;;5045253;28;20033;-69
2020/12/08 04:20:08;;;;;;;38.75;27.35;;;2.60;93.00;;;;;;5038676;28;20057;-69
2020/12/08 04:22:34;;;;;;;40.35;26.88;;;2.60;93.00;;;;;;5045390;28;20068;-69
2020/12/08 04:25:00;;;;;;;39.95;27.67;;;2.60;93.10;;;;;;5044561;28;20426;-69
2020/12/08 04:27:25;;;;;;;38.97;26.85;;;2.70;93.10;;;;;;5047309;28;20094;-69
2020/12/08 04:29:51;;;;;;;38.30;27.63;;;2.70;92.90;;;;;;5044947;28;20037;-68
2020/12/08 04:32:16;;;;;;;40.53;27.77;;;2.70;92.80;;;;;;5047888;28;20028;-69
2020/12/08 04:34:42;;;;;;;38.92;27.70;;;2.70;92.60;;;;;;5044070;28;20029;-69
2020/12/08 04:37:08;;;;;;;39.28;28.27;;;2.70;92.50;;;;;;5043651;28;20075;-70
2020/12/08 04:39:34;;;;;;;39.95;28.33;;;2.70;92.50;;;;;;5052891;28;20033;-69
2020/12/08 04:42:00;;;;;;;37.55;26.85;;;2.70;92.50;;;;;;5043053;28;21164;-69
2020/12/08 04:44:26;;;;;;;37.58;27.25;;;2.70;92.50;;;;;;5047499;28;20029;-69
2020/12/08 04:46:56;;;;;;;38.15;26.95;;;2.80;92.60;;;;;;5045074;28;20037;-69
2020/12/08 04:49:26;;;;;;;38.30;26.55;;;2.80;92.60;;;;;;5038004;28;20404;-69
2020/12/08 04:51:52;;;;;;;34.53;26.58;;;2.80;92.50;;;;;;5041357;28;20036;-69
2020/12/08 04:54:18;;;;;;;45.38;33.08;;;2.80;92.50;;;;;;5033892;28;20152;-67
2020/12/08 04:56:46;;;;;;;45.72;33.28;;;2.90;92.40;;;;;;5039472;28;20040;-68
2020/12/08 04:59:23;;;;;;;39.67;29.13;;;2.90;92.40;;;;;;5036023;28;20038;-70
2020/12/08 05:01:49;;;;;;;34.38;27.05;;;3.00;92.40;;;;;;5038100;28;20140;-68
2020/12/08 05:04:24;;;;;;;36.30;27.33;;;3.00;92.30;;;;;;5033991;28;20472;-68
2020/12/08 05:07:06;;;;;;;34.53;25.88;;;3.00;92.30;;;;;;5032694;28;20041;-68
2020/12/08 05:09:43;;;;;;;32.83;24.27;;;3.00;92.20;;;;;;5037812;28;20316;-68
2020/12/08 05:12:08;;;;;;;36.67;27.23;;;3.00;92.10;;;;;;5034203;28;20120;-69
2020/12/08 05:14:41;;;;;;;34.60;25.45;;;3.00;92.00;;;;;;5039424;28;20116;-69
2020/12/08 05:17:08;;;;;;;31.88;24.25;;;3.00;91.90;;;;;;5031924;28;20036;-68
2020/12/08 05:19:33;;;;;;;32.15;24.85;;;3.00;91.80;;;;;;5039276;28;20036;-68
2020/12/08 05:21:59;;;;;;;34.88;25.95;;;3.00;91.70;;;;;;5041230;28;20021;-67
2020/12/08 05:24:32;;;;;;;35.38;26.33;;;2.90;91.70;;;;;;5035696;28;20076;-71
2020/12/08 05:27:00;;;;;;;34.00;25.40;;;3.00;91.70;;;;;;5045078;28;20479;-67
2020/12/08 05:29:31;;;;;;;34.03;26.50;;;3.00;91.80;;;;;;5037155;28;20480;-70
2020/12/08 05:31:57;;;;;;;35.47;25.10;;;3.00;91.80;;;;;;5045386;28;20426;-67
2020/12/08 05:34:24;;;;;;;31.50;24.95;;;3.00;91.70;;;;;;5053492;28;20033;-70
2020/12/08 05:36:53;;;;;;;31.83;24.63;;;3.00;91.50;;;;;;5042390;28;20419;-67
2020/12/08 05:39:21;;;;;;;34.00;25.45;;;3.00;91.50;;;;;;5037603;28;20037;-68
2020/12/08 05:41:48;;;;;;;35.47;24.52;;;3.00;91.50;;;;;;5054686;28;20370;-68
2020/12/08 05:44:23;;;;;;;33.85;24.83;;;3.00;91.50;;;;;;5063920;28;20850;-67
2020/12/08 05:46:49;;;;;;;;;;;3.10;91.40;;;;;;5068698;28;20040;-67
2020/12/08 05:49:15;;;;;;;35.45;25.52;;;3.10;91.30;;;;;;5054967;28;19975;-68
2020/12/08 05:51:46;;;;;;;30.80;23.45;;;3.10;91.30;;;;;;5063173;28;20056;-67
2020/12/08 05:54:18;;;;;;;35.85;24.75;;;3.00;91.30;;;;;;5052436;28;20036;-68
2020/12/08 05:56:44;;;;;;;33.88;25.88;;;3.00;91.40;;;;;;5035201;28;20273;-69
2020/12/08 05:59:10;;;;;;;34.47;25.73;;;3.00;91.50;;;;;;5045539;28;20502;-67
2020/12/08 06:01:49;;;;;;;38.28;25.73;;;3.00;91.50;;;;;;5039434;28;20419;-68
2020/12/08 06:04:14;;;;;;;39.40;27.33;;;2.90;91.60;;;;;;5033149;28;20124;-69
2020/12/08 06:06:50;;;;;;;35.58;26.23;;;2.90;91.70;;;;;;5038439;28;20124;-70
2020/12/08 06:09:33;;;;;;;32.85;24.45;;;2.80;91.60;;;;;;5034364;28;20119;-68
2020/12/08 06:12:03;;;;;;;37.45;25.58;;;2.80;91.60;;;;;;5059341;28;20112;-69
2020/12/08 06:14:33;;;;;;;36.78;25.67;;;2.70;91.80;;;;;;5065407;28;20033;-70
2020/12/08 06:17:04;;;;;;;35.33;26.35;;;2.80;91.90;;;;;;5060198;28;20571;-68
2020/12/08 06:19:30;;;;;;;36.10;26.90;;;2.80;92.00;;;;;;5050181;28;20383;-71
2020/12/08 06:21:57;;;;;;;36.85;26.48;;;2.80;92.10;;;;;;5045581;28;20033;-68
2020/12/08 06:24:22;;;;;;;40.45;30.67;;;2.80;92.10;;;;;;5045069;28;20089;-67
2020/12/08 06:26:48;;;;;;;49.78;33.97;;;2.80;92.10;;;;;;5052779;28;20045;-67
2020/12/08 06:29:14;;;;;;;57.65;37.97;;;2.70;92.20;;;;;;5055592;28;20064;-67
2020/12/08 06:31:44;;;;;;;53.67;37.40;;;2.70;92.20;;;;;;5067930;28;20033;-71
2020/12/08 06:34:18;;;;;;;57.22;39.17;;;2.70;92.30;;;;;;5064210;28;20040;-68
2020/12/08 06:36:43;;;;;;;56.47;38.15;;;2.80;92.30;;;;;;5064476;28;20381;-68
2020/12/08 06:39:10;;;;;;;40.30;29.70;;;2.70;92.30;;;;;;5065482;28;20037;-67
2020/12/08 06:41:38;;;;;;;52.25;36.53;;;2.80;92.30;;;;;;5063810;28;20037;-67
2020/12/08 06:44:05;;;;;;;48.65;33.53;;;2.80;92.20;;;;;;5033389;28;20396;-68
2020/12/08 06:46:31;;;;;;;41.05;29.45;;;2.80;92.10;;;;;;5044880;28;20114;-67
2020/12/08 06:49:04;;;;;;;41.20;27.98;;;2.80;92.10;;;;;;5046226;28;20140;-67
2020/12/08 06:51:30;;;;;;;37.78;26.25;;;2.80;92.10;;;;;;5045017;28;20029;-67
2020/12/08 06:53:56;;;;;;;38.78;26.48;;;2.80;92.10;;;;;;5047921;28;20052;-68
2020/12/08 06:56:32;;;;;;;34.97;25.75;;;2.80;92.20;;;;;;5049655;28;20080;-68
2020/12/08 06:58:58;;;;;;;37.38;26.73;;;2.80;92.10;;;;;;5041863;28;20388;-68
2020/12/08 07:01:25;;;;;;;34.97;26.45;;;2.80;91.90;;;;;;5049049;28;20025;-68
2020/12/08 07:03:52;;;;;;;38.10;27.00;;;2.80;91.90;;;;;;5042918;28;20039;-67
2020/12/08 07:06:19;;;;;;;34.17;26.85;;;2.80;91.80;;;;;;5043155;28;20044;-68
2020/12/08 07:08:49;;;;;;;36.50;25.88;;;2.70;91.70;;;;;;5046781;28;20132;-68
2020/12/08 07:11:19;;;;;;;33.53;26.02;;;2.70;91.70;;;;;;5041975;28;20042;-68
2020/12/08 07:13:59;;;;;;;37.90;26.60;;;2.70;91.70;;;;;;5038306;28;20048;-68
2020/12/08 07:16:26;;;;;;;39.58;29.10;;;2.70;91.80;;;;;;5034717;28;20103;-68
2020/12/08 07:18:54;;;;;;;37.42;28.10;;;2.70;91.80;;;;;;5035645;28;20025;-68
2020/12/08 07:21:20;;;;;;;40.53;29.13;;;2.70;91.80;;;;;;5043175;28;20519;-67
2020/12/08 07:23:47;;;;;;;49.05;32.00;;;2.70;91.80;;;;;;5045290;28;20021;-68
2020/12/08 07:26:15;;;;;;;43.28;30.65;;;2.60;91.80;;;;;;5043136;28;20115;-69
2020/12/08 07:28:41;;;;;;;43.70;30.10;;;2.60;92.00;;;;;;5048549;28;20060;-68
2020/12/08 07:31:17;;;;;;;41.13;30.13;;;2.60;92.00;;;;;;5043295;28;20033;-68
2020/12/08 07:33:43;;;;;;;45.08;31.83;;;2.60;92.10;;;;;;5038918;28;20037;-68
2020/12/08 07:36:37;;;;;;;48.22;35.22;;;2.60;92.20;;;;;;5042101;28;20040;-68
2020/12/08 07:39:03;;;;;;;46.25;34.08;;;2.60;92.20;;;;;;5036360;28;20037;-68
2020/12/08 07:41:31;;;;;;;44.58;36.05;;;2.60;92.20;;;;;;5040628;28;20060;-68
2020/12/08 07:43:58;;;;;;;52.75;39.83;;;2.60;92.20;;;;;;5039928;28;20503;-68
2020/12/08 07:46:29;;;;;;;50.65;37.55;;;2.60;92.30;;;;;;5045040;28;20042;-68
2020/12/08 07:49:10;;;;;;;48.80;34.90;;;2.70;92.40;;;;;;5045393;28;20559;-68
2020/12/08 07:51:37;;;;;;;44.88;31.13;;;2.70;92.50;;;;;;5059084;28;20028;-67
2020/12/08 07:54:05;;;;;;;52.17;36.15;;;2.70;92.50;;;;;;5057226;28;20074;-68
2020/12/08 07:56:35;;;;;;;46.42;32.47;;;2.70;92.50;;;;;;5056073;28;20488;-67
2020/12/08 07:59:01;;;;;;;39.50;29.75;;;2.70;92.50;;;;;;5054758;28;20079;-69
2020/12/08 08:01:27;;;;;;;39.30;28.95;;;2.60;92.50;;;;;;5059695;28;20033;-67
2020/12/08 08:03:53;;;;;;;39.17;28.00;;;2.70;92.50;;;;;;5061740;28;20028;-71
2020/12/08 08:06:23;;;;;;;38.38;27.70;;;2.60;92.50;;;;;;5059131;28;20132;-68
2020/12/08 08:08:50;;;;;;;36.85;27.10;;;2.70;92.50;;;;;;5057929;28;20048;-68
2020/12/08 08:11:16;;;;;;;37.42;26.73;;;2.70;92.50;;;;;;5056391;28;20028;-68
2020/12/08 08:13:42;;;;;;;35.60;27.17;;;2.70;92.50;;;;;;5054132;28;20056;-69
2020/12/08 08:16:12;;;;;;;39.70;28.73;;;2.70;92.50;;;;;;5064736;28;20056;-69
2020/12/08 08:18:38;;;;;;;38.20;26.83;;;2.70;92.50;;;;;;5062983;28;20044;-70
2020/12/08 08:21:04;;;;;;;36.58;27.65;;;2.70;92.50;;;;;;5059747;28;20040;-68
2020/12/08 08:23:30;;;;;;;41.45;28.88;;;2.70;92.40;;;;;;5057877;28;20035;-68
2020/12/08 08:25:57;;;;;;;44.22;32.30;;;2.80;92.50;;;;;;5056647;28;20029;-68
2020/12/08 08:28:23;;;;;;;43.03;29.40;;;2.90;92.20;;;;;;5055297;28;20503;-68
2020/12/08 08:30:48;;;;;;;43.05;29.30;;;2.90;92.10;;;;;;5056559;28;20070;-68
2020/12/08 08:33:14;;;;;;;57.03;35.13;;;3.00;92.00;;;;;;5059598;28;20025;-68
2020/12/08 08:35:40;;;;;;;51.50;33.40;;;3.00;92.00;;;;;;5057823;28;20464;-68
2020/12/08 08:38:06;;;;;;;42.17;29.50;;;3.00;91.90;;;;;;5066168;28;20048;-68
2020/12/08 08:40:32;;;;;;;37.05;28.48;;;3.00;91.90;;;;;;5060566;28;20036;-67
2020/12/08 08:42:58;;;;;;;39.22;28.88;;;3.00;91.80;;;;;;5058445;28;20064;-67
2020/12/08 08:45:24;;;;;;;36.67;27.58;;;3.00;91.70;;;;;;5056652;28;20131;-68
2020/12/08 08:47:50;;;;;;;36.42;27.60;;;3.00;91.80;;;;;;5062592;28;20135;-68
2020/12/08 08:50:15;;;;;;;40.75;29.50;;;3.10;91.80;;;;;;5055437;28;20621;-68
2020/12/08 08:52:41;;;;;;;43.63;30.50;;;3.10;91.70;;;;;;5057439;28;20077;-68
2020/12/08 08:55:09;;;;;;;41.95;30.42;;;3.10;91.70;;;;;;5058038;28;20036;-68
2020/12/08 08:57:35;;;;;;;40.33;28.92;;;3.10;91.60;;;;;;5052259;28;20075;-68
2020/12/08 09:00:02;;;;;;;42.30;30.23;;;3.10;91.60;;;;;;5054936;28;20053;-68
2020/12/08 09:02:27;;;;;;;44.58;32.22;;;3.10;91.80;;;;;;5064085;28;20459;-67
2020/12/08 09:04:53;;;;;;;39.03;28.52;;;3.20;91.80;;;;;;5056240;28;20093;-67
2020/12/08 09:07:19;;;;;;;37.47;28.10;;;3.20;91.80;;;;;;5061947;28;20045;-68
2020/12/08 09:09:44;;;;;;;38.03;27.98;;;3.40;91.80;;;;;;5062227;28;20373;-67
2020/12/08 09:12:10;;;;;;;37.40;27.40;;;3.50;91.60;;;;;;5054456;28;20063;-67
2020/12/08 09:14:36;;;;;;;42.08;28.77;;;3.60;91.30;;;;;;5044858;28;20037;-68
2020/12/08 09:17:01;;;;;;;35.50;27.20;;;3.60;91.00;;;;;;5045135;28;20071;-67
2020/12/08 09:19:27;;;;;;;41.15;28.92;;;3.60;90.90;;;;;;5042573;28;20131;-68
2020/12/08 09:21:57;;;;;;;41.97;30.40;;;3.60;90.70;;;;;;5034540;28;20521;-67
2020/12/08 09:24:22;;;;;;;42.97;31.83;;;3.60;90.60;;;;;;5037880;28;20052;-68
2020/12/08 09:26:48;;;;;;;43.38;29.65;;;3.60;90.80;;;;;;5035394;28;20053;-70
2020/12/08 09:29:14;;;;;;;41.05;29.35;;;3.70;91.00;;;;;;5046536;28;20068;-68
2020/12/08 09:31:41;;;;;;;40.67;29.67;;;3.80;91.20;;;;;;5040508;28;20156;-69
2020/12/08 09:34:07;;;;;;;41.97;29.50;;;3.90;91.10;;;;;;5037827;28;20041;-69
2020/12/08 09:36:34;;;;;;;39.50;30.05;;;3.90;90.80;;;;;;5044749;28;20029;-67
2020/12/08 09:39:00;;;;;;;35.28;28.00;;;4.00;90.30;;;;;;5047112;28;20124;-73
2020/12/08 09:41:26;;;;;;;38.25;28.35;;;3.80;89.90;;;;;;5040257;28;20041;-68
2020/12/08 09:43:53;;;;;;;41.38;28.65;;;3.80;90.30;;;;;;5039758;28;20029;-69
2020/12/08 09:46:19;;;;;;;39.22;28.30;;;3.80;89.80;;;;;;5042201;28;20078;-69
2020/12/08 09:48:44;;;;;;;37.38;28.85;;;3.80;90.10;;;;;;5035030;28;20057;-74
2020/12/08 09:51:10;;;;;;;37.70;28.25;;;3.90;90.20;;;;;;5043200;28;20303;-70
2020/12/08 09:53:36;;;;;;;38.10;28.73;;;4.00;90.30;;;;;;5037613;28;20037;-69
2020/12/08 09:56:02;;;;;;;39.65;30.15;;;4.10;90.40;;;;;;5044810;28;20044;-69
2020/12/08 09:58:28;;;;;;;37.78;28.48;;;4.30;90.60;;;;;;5040129;28;20388;-69
2020/12/08 10:00:53;;;;;;;39.15;28.98;;;4.50;89.50;;;;;;5040653;28;20044;-69
2020/12/08 10:03:19;;;;;;;37.03;28.95;;;4.40;88.30;;;;;;5033364;28;20713;-69
2020/12/08 10:05:44;;;;;;;40.28;28.48;;;4.10;88.60;;;;;;5034103;28;20034;-69
2020/12/08 10:08:10;;;;;;;38.08;29.27;;;4.00;89.20;;;;;;5035304;28;20056;-69
2020/12/08 10:10:36;;;;;;;40.03;30.48;;;4.00;89.70;;;;;;5036239;28;20030;-69
2020/12/08 10:13:01;;;;;;;42.83;30.77;;;3.90;89.90;;;;;;5035282;28;20079;-69
2020/12/08 10:15:28;;;;;;;46.53;32.15;;;3.90;90.10;;;;;;5038875;28;20040;-69
2020/12/08 10:17:53;;;;;;;39.10;29.45;;;3.90;90.30;;;;;;5041431;28;20037;-69
2020/12/08 10:20:19;;;;;;;37.78;28.83;;;3.90;90.20;;;;;;5039106;28;20499;-68
2020/12/08 10:22:45;;;;;;;39.63;29.90;;;4.00;90.40;;;;;;5042253;28;20134;-69
2020/12/08 10:25:11;;;;;;;42.75;31.80;;;3.90;90.30;;;;;;5039642;28;20465;-69
2020/12/08 10:27:36;;;;;;;38.65;30.25;;;3.90;90.00;;;;;;5046158;28;20064;-68
2020/12/08 10:30:04;;;;;;;40.08;29.67;;;3.90;90.10;;;;;;5037307;28;20032;-69
2020/12/08 10:32:30;;;;;;;41.20;30.73;;;4.00;90.30;;;;;;5044344;28;20059;-70
2020/12/08 10:34:55;;;;;;;38.13;29.63;;;4.00;90.40;;;;;;5040617;28;20029;-68
2020/12/08 10:37:21;;;;;;;39.55;28.77;;;4.00;90.30;;;;;;5036669;28;20053;-68
2020/12/08 10:39:47;;;;;;;36.05;28.30;;;4.00;90.00;;;;;;5035604;28;20128;-68
2020/12/08 10:42:12;;;;;;;37.88;29.75;;;4.00;90.00;;;;;;5037152;28;20373;-70
2020/12/08 10:44:38;;;;;;;38.88;28.75;;;4.00;89.90;;;;;;5045555;28;20071;-72
2020/12/08 10:47:03;;;;;;;40.17;31.15;;;3.90;89.90;;;;;;5051159;28;20044;-68
2020/12/08 10:49:29;;;;;;;41.65;31.33;;;3.90;89.80;;;;;;5034343;28;20160;-69
2020/12/08 10:51:55;;;;;;;42.92;31.00;;;3.90;89.80;;;;;;5042598;28;20044;-70
2020/12/08 10:54:21;;;;;;;45.20;33.67;;;3.90;90.00;;;;;;5040042;28;20033;-68
2020/12/08 10:56:51;;;;;;;40.83;30.95;;;4.10;90.10;;;;;;5038846;28;20034;-69
2020/12/08 10:59:16;;;;;;;53.92;37.22;;;4.20;89.90;;;;;;5036852;28;20037;-68
2020/12/08 11:01:42;;;;;;;41.70;33.55;;;4.50;89.60;;;;;;5046990;28;20041;-70
2020/12/08 11:04:08;;;;;;;44.95;32.80;;;4.70;89.60;;;;;;5044879;28;20480;-69
2020/12/08 11:06:33;;;;;;;39.42;30.73;;;4.90;89.20;;;;;;5031967;28;20076;-70
2020/12/08 11:08:59;;;;;;;36.22;29.55;;;5.10;88.20;;;;;;5030002;28;20073;-70
2020/12/08 11:11:27;;;;;;;37.08;29.42;;;5.20;87.60;;;;;;5033479;28;20092;-70
2020/12/08 11:13:54;;;;;;;38.03;28.70;;;5.30;87.20;;;;;;5036516;28;20029;-69
2020/12/08 11:16:21;;;;;;;42.22;28.95;;;5.50;85.70;;;;;;5033866;28;20456;-69
2020/12/08 11:18:47;;;;;;;57.05;31.08;;;5.60;85.70;;;;;;5039339;28;20040;-69
2020/12/08 11:21:12;;;;;;;33.55;25.58;;;5.70;85.50;;;;;;5034733;28;20489;-69
2020/12/08 11:23:40;;;;;;;30.65;24.67;;;5.80;84.30;;;;;;5034492;28;20111;-69
2020/12/08 11:26:11;;;;;;;33.80;25.75;;;5.80;83.80;;;;;;5043043;28;20130;-69
2020/12/08 11:28:37;;;;;;;32.53;25.77;;;5.90;83.30;;;;;;5046856;28;20044;-69
2020/12/08 11:31:03;;;;;;;34.10;24.77;;;5.90;83.00;;;;;;5032144;28;20048;-69
2020/12/08 11:33:28;;;;;;;31.08;24.15;;;5.90;82.40;;;;;;5038982;28;20479;-69
2020/12/08 11:35:54;;;;;;;30.35;24.35;;;6.00;82.70;;;;;;5037999;28;20021;-73
2020/12/08 11:38:21;;;;;;;29.92;24.58;;;6.10;82.30;;;;;;5032117;28;22413;-69
2020/12/08 11:40:46;;;;;;;31.75;25.05;;;6.10;81.90;;;;;;5028975;28;20030;-69
2020/12/08 11:43:12;;;;;;;29.75;24.58;;;6.00;82.40;;;;;;5031459;28;20392;-70
2020/12/08 11:45:38;;;;;;;29.23;22.95;;;6.10;82.80;;;;;;5034466;28;20029;-69
2020/12/08 11:48:03;;;;;;;31.13;24.60;;;6.20;82.00;;;;;;5033996;28;20057;-72
2020/12/08 11:50:29;;;;;;;33.40;25.48;;;6.10;81.20;;;;;;5029404;28;20025;-70
2020/12/08 11:52:55;;;;;;;31.08;24.83;;;6.20;81.70;;;;;;5034491;28;20370;-69
2020/12/08 11:55:21;;;;;;;32.03;23.90;;;6.30;81.30;;;;;;5033649;28;20082;-71
2020/12/08 11:57:47;;;;;;;31.20;23.30;;;6.30;81.20;;;;;;5029581;28;21042;-69
2020/12/08 12:00:12;;;;;;;31.73;23.95;;;6.40;81.10;;;;;;5029279;28;20065;-69
2020/12/08 12:02:38;;;;;;;26.52;21.88;;;6.40;80.60;;;;;;5028516;28;20044;-69
2020/12/08 12:05:04;;;;;;;28.67;22.17;;;6.50;80.60;;;;;;5032526;28;20497;-70
2020/12/08 12:07:30;;;;;;;28.42;22.80;;;6.50;79.00;;;;;;5032385;28;20044;-71
2020/12/08 12:09:55;;;;;;;31.52;23.25;;;6.30;79.10;;;;;;5040476;28;20205;-69
2020/12/08 12:12:21;;;;;;;29.90;22.63;;;6.30;79.60;;;;;;5033736;28;20163;-69
2020/12/08 12:14:47;;;;;;;29.38;22.83;;;6.20;79.20;;;;;;5035114;28;20048;-70
2020/12/08 12:17:12;;;;;;;31.02;23.70;;;6.20;79.10;;;;;;5025094;28;20143;-73
2020/12/08 12:19:38;;;;;;;27.13;21.52;;;6.20;78.60;;;;;;5032947;28;20534;-70
2020/12/08 12:22:04;;;;;;;31.27;23.83;;;6.20;79.70;;;;;;5032612;28;20029;-69
2020/12/08 12:24:29;;;;;;;28.80;22.75;;;6.10;78.90;;;;;;5032905;28;20076;-70
2020/12/08 12:26:55;;;;;;;33.13;24.02;;;6.00;79.60;;;;;;5032306;28;20042;-70
2020/12/08 12:29:20;;;;;;;31.25;24.25;;;6.00;80.30;;;;;;5030966;28;20037;-73
2020/12/08 12:31:47;;;;;;;30.63;23.98;;;6.10;80.50;;;;;;5031738;28;20042;-71
2020/12/08 12:34:13;;;;;;;34.70;25.48;;;6.10;80.60;;;;;;5044694;28;20206;-70
2020/12/08 12:36:40;;;;;;;31.38;24.85;;;6.00;80.20;;;;;;5034092;28;20127;-68